sensor_id;sensor_type;location;lat;lon;timestamp;temperature;humidity
4934;DHT22;2482;49.154;8.254;2024-02-14T00:01:49;4.70;99.90
4934;DHT22;2482;49.154;8.254;2024-02-14T00:04:17;4.70;99.90
4934;DHT22;2482;49.154;8.254;2024-02-14T00:06:45;4.80;99.90
4934;DHT22;2482;49.154;8.254;2024-02-14T00:09:12;5.00;99.90
4934;DHT22;2482;49.154;8.254;2024-02-14T00:11:40;5.10;99.90
4934;DHT22;2482;49.154;8.254;2024-02-14T00:14:07;5.20;99.90
4934;DHT22;2482;49.154;8.254;2024-02-14T00:16:34;5.20;99.90
4934;DHT22;2482;49.154;8.254;2024-02-14T00:19:05;5.30;99.90
4934;DHT22;2482;49.154;8.254;2024-02-14T00:21:32;5.20;99.90
4934;DHT22;2482;49.154;8.254;2024-02-14T00:24:01;5.10;99.90
4934;DHT22;2482;49.154;8.254;2024-02-14T00:26:29;5.10;99.90
4934;DHT22;2482;49.154;8.254;2024-02-14T00:28:57;5.20;99.90
4934;DHT22;2482;49.154;8.254;2024-02-14T00:31:24;5.30;99.90
4934;DHT22;2482;49.154;8.254;2024-02-14T00:33:51;5.40;99.90
4934;DHT22;2482;49.154;8.254;2024-02-14T00:36:18;5.40;99.90
4934;DHT22;2482;49.154;8.254;2024-02-14T00:38:46;5.50;99.90
4934;DHT22;2482;49.154;8.254;2024-02-14T00:41:13;5.60;99.90
4934;DHT22;2482;49.154;8.254;2024-02-14T00:43:40;5.60;99.90
4934;DHT22;2482;49.154;8.254;2024-02-14T00:46:07;5.50;99.90
4934;DHT22;2482;49.154;8.254;2024-02-14T00:48:34;5.60;99.90
4934;DHT22;2482;49.154;8.254;2024-02-14T00:51:02;5.70;99.90
4934;DHT22;2482;49.154;8.254;2024-02-14T00:53:29;5.70;99.90
4934;DHT22;2482;49.154;8.254;2024-02-14T00:55:58;5.80;99.90
4934;DHT22;2482;49.154;8.254;2024-02-14T00:58:26;5.80;99.90
4934;DHT22;2482;49.154;8.254;2024-02-14T01:00:53;5.80;99.90
4934;DHT22;2482;49.154;8.254;2024-02-14T01:03:22;5.80;99.90
4934;DHT22;2482;49.154;8.254;2024-02-14T01:05:50;5.90;99.90
4934;DHT22;2482;49.154;8.254;2024-02-14T01:08:17;5.90;99.90
4934;DHT22;2482;49.154;8.254;2024-02-14T01:10:44;5.90;99.90
4934;DHT22;2482;49.154;8.254;2024-02-14T01:13:13;6.00;99.90
4934;DHT22;2482;49.154;8.254;2024-02-14T01:15:40;6.20;99.90
4934;DHT22;2482;49.154;8.254;2024-02-14T01:18:08;6.10;99.90
4934;DHT22;2482;49.154;8.254;2024-02-14T01:20:35;6.20;99.90
4934;DHT22;2482;49.154;8.254;2024-02-14T01:23:04;6.00;99.90
4934;DHT22;2482;49.154;8.254;2024-02-14T01:25:31;5.90;99.90
4934;DHT22;2482;49.154;8.254;2024-02-14T01:27:59;5.90;99.90
4934;DHT22;2482;49.154;8.254;2024-02-14T01:30:26;5.70;99.90
4934;DHT22;2482;49.154;8.254;2024-02-14T01:32:54;5.70;99.90
4934;DHT22;2482;49.154;8.254;2024-02-14T01:35:21;5.80;99.90
4934;DHT22;2482;49.154;8.254;2024-02-14T01:37:49;5.80;99.90
4934;DHT22;2482;49.154;8.254;2024-02-14T01:40:19;5.70;99.90
4934;DHT22;2482;49.154;8.254;2024-02-14T01:42:46;5.70;99.90
4934;DHT22;2482;49.154;8.254;2024-02-14T01:45:13;5.60;99.90
4934;DHT22;2482;49.154;8.254;2024-02-14T01:47:40;5.70;99.90
4934;DHT22;2482;49.154;8.254;2024-02-14T01:50:09;5.70;99.90
4934;DHT22;2482;49.154;8.254;2024-02-14T01:52:38;5.80;99.90
4934;DHT22;2482;49.154;8.254;2024-02-14T01:55:07;5.90;99.90
4934;DHT22;2482;49.154;8.254;2024-02-14T01:57:35;6.00;99.90
4934;DHT22;2482;49.154;8.254;2024-02-14T02:00:03;6.00;99.90
4934;DHT22;2482;49.154;8.254;2024-02-14T02:02:35;6.10;99.90
4934;DHT22;2482;49.154;8.254;2024-02-14T02:05:04;6.00;99.90
4934;DHT22;2482;49.154;8.254;2024-02-14T02:07:32;6.00;99.90
4934;DHT22;2482;49.154;8.254;2024-02-14T02:09:59;5.90;99.90
4934;DHT22;2482;49.154;8.254;2024-02-14T02:12:27;5.90;99.90
4934;DHT22;2482;49.154;8.254;2024-02-14T02:14:54;5.80;99.90
4934;DHT22;2482;49.154;8.254;2024-02-14T02:17:21;5.90;99.90
4934;DHT22;2482;49.154;8.254;2024-02-14T02:19:49;5.80;99.90
4934;DHT22;2482;49.154;8.254;2024-02-14T02:22:16;5.80;99.90
4934;DHT22;2482;49.154;8.254;2024-02-14T02:24:43;5.70;99.90
4934;DHT22;2482;49.154;8.254;2024-02-14T02:27:13;5.70;99.90
4934;DHT22;2482;49.154;8.254;2024-02-14T02:29:43;5.70;99.90
4934;DHT22;2482;49.154;8.254;2024-02-14T02:32:10;5.50;99.90
4934;DHT22;2482;49.154;8.254;2024-02-14T02:34:38;5.30;99.90
4934;DHT22;2482;49.154;8.254;2024-02-14T02:37:06;5.30;99.90
4934;DHT22;2482;49.154;8.254;2024-02-14T02:39:37;5.30;99.90
4934;DHT22;2482;49.154;8.254;2024-02-14T02:42:04;5.50;99.90
4934;DHT22;2482;49.154;8.254;2024-02-14T02:44:31;5.40;99.90
4934;DHT22;2482;49.154;8.254;2024-02-14T02:46:58;5.50;99.90
4934;DHT22;2482;49.154;8.254;2024-02-14T02:49:27;5.40;99.90
4934;DHT22;2482;49.154;8.254;2024-02-14T02:51:57;5.60;99.90
4934;DHT22;2482;49.154;8.254;2024-02-14T02:54:24;5.60;99.90
4934;DHT22;2482;49.154;8.254;2024-02-14T02:56:51;5.70;99.90
4934;DHT22;2482;49.154;8.254;2024-02-14T02:59:18;5.70;99.90
4934;DHT22;2482;49.154;8.254;2024-02-14T03:01:45;5.80;99.90
4934;DHT22;2482;49.154;8.254;2024-02-14T03:04:12;5.90;99.90
4934;DHT22;2482;49.154;8.254;2024-02-14T03:06:41;6.00;99.90
4934;DHT22;2482;49.154;8.254;2024-02-14T03:09:10;5.90;99.90
4934;DHT22;2482;49.154;8.254;2024-02-14T03:11:37;6.10;99.90
4934;DHT22;2482;49.154;8.254;2024-02-14T03:14:05;6.00;99.90
4934;DHT22;2482;49.154;8.254;2024-02-14T03:16:33;6.10;99.90
4934;DHT22;2482;49.154;8.254;2024-02-14T03:19:03;6.10;99.90
4934;DHT22;2482;49.154;8.254;2024-02-14T03:21:32;6.10;99.90
4934;DHT22;2482;49.154;8.254;2024-02-14T03:24:04;6.00;99.90
4934;DHT22;2482;49.154;8.254;2024-02-14T03:26:32;5.90;99.90
4934;DHT22;2482;49.154;8.254;2024-02-14T03:29:02;6.00;99.90
4934;DHT22;2482;49.154;8.254;2024-02-14T03:31:33;6.10;99.90
4934;DHT22;2482;49.154;8.254;2024-02-14T03:34:00;6.10;99.90
4934;DHT22;2482;49.154;8.254;2024-02-14T03:36:28;6.30;99.90
4934;DHT22;2482;49.154;8.254;2024-02-14T03:38:57;6.20;99.90
4934;DHT22;2482;49.154;8.254;2024-02-14T03:41:24;6.20;99.90
4934;DHT22;2482;49.154;8.254;2024-02-14T03:43:51;6.20;99.90
4934;DHT22;2482;49.154;8.254;2024-02-14T03:46:19;6.30;99.90
4934;DHT22;2482;49.154;8.254;2024-02-14T03:48:48;6.20;99.90
4934;DHT22;2482;49.154;8.254;2024-02-14T03:51:15;6.40;99.90
4934;DHT22;2482;49.154;8.254;2024-02-14T03:53:42;6.30;99.90
4934;DHT22;2482;49.154;8.254;2024-02-14T03:56:09;6.30;99.90
4934;DHT22;2482;49.154;8.254;2024-02-14T03:58:36;6.30;99.90
4934;DHT22;2482;49.154;8.254;2024-02-14T04:01:04;6.20;99.90
4934;DHT22;2482;49.154;8.254;2024-02-14T04:03:31;6.30;99.90
4934;DHT22;2482;49.154;8.254;2024-02-14T04:05:59;6.40;99.90
4934;DHT22;2482;49.154;8.254;2024-02-14T04:08:26;6.40;99.90
4934;DHT22;2482;49.154;8.254;2024-02-14T04:10:53;6.40;99.90
4934;DHT22;2482;49.154;8.254;2024-02-14T04:13:22;6.50;99.90
4934;DHT22;2482;49.154;8.254;2024-02-14T04:15:49;6.60;99.90
4934;DHT22;2482;49.154;8.254;2024-02-14T04:18:15;6.50;99.90
4934;DHT22;2482;49.154;8.254;2024-02-14T04:20:45;6.60;99.90
4934;DHT22;2482;49.154;8.254;2024-02-14T04:23:12;6.70;99.90
4934;DHT22;2482;49.154;8.254;2024-02-14T04:25:41;6.70;99.90
4934;DHT22;2482;49.154;8.254;2024-02-14T04:28:08;6.70;99.90
4934;DHT22;2482;49.154;8.254;2024-02-14T04:30:39;6.70;99.90
4934;DHT22;2482;49.154;8.254;2024-02-14T04:33:08;6.60;99.90
4934;DHT22;2482;49.154;8.254;2024-02-14T04:35:40;6.50;99.90
4934;DHT22;2482;49.154;8.254;2024-02-14T04:38:07;6.50;99.90
4934;DHT22;2482;49.154;8.254;2024-02-14T04:40:35;6.70;99.90
4934;DHT22;2482;49.154;8.254;2024-02-14T04:43:05;6.80;99.90
4934;DHT22;2482;49.154;8.254;2024-02-14T04:45:33;6.80;99.90
4934;DHT22;2482;49.154;8.254;2024-02-14T04:48:02;6.80;99.90
4934;DHT22;2482;49.154;8.254;2024-02-14T04:50:30;6.90;99.90
4934;DHT22;2482;49.154;8.254;2024-02-14T04:52:58;6.90;99.90
4934;DHT22;2482;49.154;8.254;2024-02-14T04:55:25;6.90;99.90
4934;DHT22;2482;49.154;8.254;2024-02-14T04:57:52;7.00;99.90
4934;DHT22;2482;49.154;8.254;2024-02-14T05:00:19;6.80;99.90
4934;DHT22;2482;49.154;8.254;2024-02-14T05:02:46;6.90;99.90
4934;DHT22;2482;49.154;8.254;2024-02-14T05:05:20;7.00;99.90
4934;DHT22;2482;49.154;8.254;2024-02-14T05:07:47;6.90;99.90
4934;DHT22;2482;49.154;8.254;2024-02-14T05:10:14;7.00;99.90
4934;DHT22;2482;49.154;8.254;2024-02-14T05:12:41;7.10;99.90
4934;DHT22;2482;49.154;8.254;2024-02-14T05:15:10;7.10;99.90
4934;DHT22;2482;49.154;8.254;2024-02-14T05:17:42;7.20;99.90
4934;DHT22;2482;49.154;8.254;2024-02-14T05:20:11;7.10;99.90
4934;DHT22;2482;49.154;8.254;2024-02-14T05:22:38;7.20;99.90
4934;DHT22;2482;49.154;8.254;2024-02-14T05:25:06;7.20;99.90
4934;DHT22;2482;49.154;8.254;2024-02-14T05:27:36;7.20;99.90
4934;DHT22;2482;49.154;8.254;2024-02-14T05:30:04;7.20;99.90
4934;DHT22;2482;49.154;8.254;2024-02-14T05:32:32;7.10;99.90
4934;DHT22;2482;49.154;8.254;2024-02-14T05:35:00;7.10;99.90
4934;DHT22;2482;49.154;8.254;2024-02-14T05:37:29;7.20;99.90
4934;DHT22;2482;49.154;8.254;2024-02-14T05:39:56;7.20;99.90
4934;DHT22;2482;49.154;8.254;2024-02-14T05:42:23;7.20;99.90
4934;DHT22;2482;49.154;8.254;2024-02-14T05:44:50;7.30;99.90
4934;DHT22;2482;49.154;8.254;2024-02-14T05:47:18;7.20;99.90
4934;DHT22;2482;49.154;8.254;2024-02-14T05:49:46;7.30;99.90
4934;DHT22;2482;49.154;8.254;2024-02-14T05:52:13;7.40;99.90
4934;DHT22;2482;49.154;8.254;2024-02-14T05:54:42;7.30;99.90
4934;DHT22;2482;49.154;8.254;2024-02-14T05:57:10;7.30;99.90
4934;DHT22;2482;49.154;8.254;2024-02-14T05:59:42;7.20;99.90
4934;DHT22;2482;49.154;8.254;2024-02-14T06:02:13;7.20;99.90
4934;DHT22;2482;49.154;8.254;2024-02-14T06:04:41;7.30;99.90
4934;DHT22;2482;49.154;8.254;2024-02-14T06:07:11;7.40;99.90
4934;DHT22;2482;49.154;8.254;2024-02-14T06:09:38;7.50;99.90
4934;DHT22;2482;49.154;8.254;2024-02-14T06:12:06;7.40;99.90
4934;DHT22;2482;49.154;8.254;2024-02-14T06:14:36;7.30;99.90
4934;DHT22;2482;49.154;8.254;2024-02-14T06:17:03;7.30;99.90
4934;DHT22;2482;49.154;8.254;2024-02-14T06:19:33;7.40;99.90
4934;DHT22;2482;49.154;8.254;2024-02-14T06:22:07;7.40;99.90
4934;DHT22;2482;49.154;8.254;2024-02-14T06:24:36;7.30;99.90
4934;DHT22;2482;49.154;8.254;2024-02-14T06:27:03;7.20;99.90
4934;DHT22;2482;49.154;8.254;2024-02-14T06:29:31;7.40;99.90
4934;DHT22;2482;49.154;8.254;2024-02-14T06:31:58;7.50;99.90
4934;DHT22;2482;49.154;8.254;2024-02-14T06:34:25;7.40;99.90
4934;DHT22;2482;49.154;8.254;2024-02-14T06:36:54;7.40;99.90
4934;DHT22;2482;49.154;8.254;2024-02-14T06:39:22;7.40;99.90
4934;DHT22;2482;49.154;8.254;2024-02-14T06:41:49;7.40;99.90
4934;DHT22;2482;49.154;8.254;2024-02-14T06:44:19;7.40;99.90
4934;DHT22;2482;49.154;8.254;2024-02-14T06:46:46;7.30;99.90
4934;DHT22;2482;49.154;8.254;2024-02-14T06:49:16;7.20;99.90
4934;DHT22;2482;49.154;8.254;2024-02-14T06:51:44;7.30;99.90
4934;DHT22;2482;49.154;8.254;2024-02-14T06:54:11;7.30;99.90
4934;DHT22;2482;49.154;8.254;2024-02-14T06:56:41;7.30;99.90
4934;DHT22;2482;49.154;8.254;2024-02-14T06:59:08;7.30;99.90
4934;DHT22;2482;49.154;8.254;2024-02-14T07:01:35;7.30;99.90
4934;DHT22;2482;49.154;8.254;2024-02-14T07:04:02;7.40;99.90
4934;DHT22;2482;49.154;8.254;2024-02-14T07:06:30;7.40;99.90
4934;DHT22;2482;49.154;8.254;2024-02-14T07:08:57;7.30;99.90
4934;DHT22;2482;49.154;8.254;2024-02-14T07:11:24;7.50;99.90
4934;DHT22;2482;49.154;8.254;2024-02-14T07:13:52;7.40;99.90
4934;DHT22;2482;49.154;8.254;2024-02-14T07:16:21;7.40;99.90
4934;DHT22;2482;49.154;8.254;2024-02-14T07:18:51;7.40;99.90
4934;DHT22;2482;49.154;8.254;2024-02-14T07:21:20;7.50;99.90
4934;DHT22;2482;49.154;8.254;2024-02-14T07:23:53;7.70;99.90
4934;DHT22;2482;49.154;8.254;2024-02-14T07:26:20;7.60;99.90
4934;DHT22;2482;49.154;8.254;2024-02-14T07:28:47;7.60;99.90
4934;DHT22;2482;49.154;8.254;2024-02-14T07:31:14;7.60;99.90
4934;DHT22;2482;49.154;8.254;2024-02-14T07:33:41;7.60;99.90
4934;DHT22;2482;49.154;8.254;2024-02-14T07:36:10;7.60;99.90
4934;DHT22;2482;49.154;8.254;2024-02-14T07:38:37;7.70;99.90
4934;DHT22;2482;49.154;8.254;2024-02-14T07:41:04;7.70;99.90
4934;DHT22;2482;49.154;8.254;2024-02-14T07:43:32;7.90;99.90
4934;DHT22;2482;49.154;8.254;2024-02-14T07:45:58;8.00;99.90
4934;DHT22;2482;49.154;8.254;2024-02-14T07:48:26;8.00;99.90
4934;DHT22;2482;49.154;8.254;2024-02-14T07:50:53;8.10;99.90
4934;DHT22;2482;49.154;8.254;2024-02-14T07:53:22;8.00;99.90
4934;DHT22;2482;49.154;8.254;2024-02-14T07:55:51;8.10;99.90
4934;DHT22;2482;49.154;8.254;2024-02-14T07:58:19;8.10;99.90
4934;DHT22;2482;49.154;8.254;2024-02-14T08:00:46;8.10;99.90
4934;DHT22;2482;49.154;8.254;2024-02-14T08:03:13;8.10;99.90
4934;DHT22;2482;49.154;8.254;2024-02-14T08:05:41;8.20;99.90
4934;DHT22;2482;49.154;8.254;2024-02-14T08:08:09;8.20;99.90
4934;DHT22;2482;49.154;8.254;2024-02-14T08:10:36;8.20;99.90
4934;DHT22;2482;49.154;8.254;2024-02-14T08:13:03;8.30;99.90
4934;DHT22;2482;49.154;8.254;2024-02-14T08:15:31;8.30;99.90
4934;DHT22;2482;49.154;8.254;2024-02-14T08:17:59;8.30;99.90
4934;DHT22;2482;49.154;8.254;2024-02-14T08:20:31;8.50;99.90
4934;DHT22;2482;49.154;8.254;2024-02-14T08:22:59;8.50;99.90
4934;DHT22;2482;49.154;8.254;2024-02-14T08:25:26;8.40;99.90
4934;DHT22;2482;49.154;8.254;2024-02-14T08:27:53;8.40;99.90
4934;DHT22;2482;49.154;8.254;2024-02-14T08:30:20;8.50;99.90
4934;DHT22;2482;49.154;8.254;2024-02-14T08:32:47;8.70;99.90
4934;DHT22;2482;49.154;8.254;2024-02-14T08:35:15;8.80;99.90
4934;DHT22;2482;49.154;8.254;2024-02-14T08:37:42;8.80;99.90
4934;DHT22;2482;49.154;8.254;2024-02-14T08:40:09;8.90;99.90
4934;DHT22;2482;49.154;8.254;2024-02-14T08:42:38;8.90;99.90
4934;DHT22;2482;49.154;8.254;2024-02-14T08:45:06;8.80;99.90
4934;DHT22;2482;49.154;8.254;2024-02-14T08:47:34;8.90;99.90
4934;DHT22;2482;49.154;8.254;2024-02-14T08:50:01;8.90;99.90
4934;DHT22;2482;49.154;8.254;2024-02-14T08:52:30;9.10;99.90
4934;DHT22;2482;49.154;8.254;2024-02-14T08:54:57;9.10;99.90
4934;DHT22;2482;49.154;8.254;2024-02-14T08:57:23;9.00;99.90
4934;DHT22;2482;49.154;8.254;2024-02-14T08:59:50;9.20;99.90
4934;DHT22;2482;49.154;8.254;2024-02-14T09:02:18;9.30;99.90
4934;DHT22;2482;49.154;8.254;2024-02-14T09:04:45;9.50;99.90
4934;DHT22;2482;49.154;8.254;2024-02-14T09:07:14;9.40;99.90
4934;DHT22;2482;49.154;8.254;2024-02-14T09:09:42;9.40;99.90
4934;DHT22;2482;49.154;8.254;2024-02-14T09:12:09;9.50;99.90
4934;DHT22;2482;49.154;8.254;2024-02-14T09:14:36;9.50;99.90
4934;DHT22;2482;49.154;8.254;2024-02-14T09:17:04;9.70;99.90
4934;DHT22;2482;49.154;8.254;2024-02-14T09:19:31;9.70;99.90
4934;DHT22;2482;49.154;8.254;2024-02-14T09:21:58;9.90;99.90
4934;DHT22;2482;49.154;8.254;2024-02-14T09:24:25;9.90;99.90
4934;DHT22;2482;49.154;8.254;2024-02-14T09:26:53;10.10;99.90
4934;DHT22;2482;49.154;8.254;2024-02-14T09:29:20;10.40;99.90
4934;DHT22;2482;49.154;8.254;2024-02-14T09:31:47;10.40;99.90
4934;DHT22;2482;49.154;8.254;2024-02-14T09:34:18;10.30;99.90
4934;DHT22;2482;49.154;8.254;2024-02-14T09:36:50;10.40;99.90
4934;DHT22;2482;49.154;8.254;2024-02-14T09:39:19;10.20;99.90
4934;DHT22;2482;49.154;8.254;2024-02-14T09:41:51;10.20;99.90
4934;DHT22;2482;49.154;8.254;2024-02-14T09:44:21;10.30;99.90
4934;DHT22;2482;49.154;8.254;2024-02-14T09:46:48;10.40;99.90
4934;DHT22;2482;49.154;8.254;2024-02-14T09:49:16;10.50;99.90
4934;DHT22;2482;49.154;8.254;2024-02-14T09:51:46;10.50;99.90
4934;DHT22;2482;49.154;8.254;2024-02-14T09:54:13;10.40;99.90
4934;DHT22;2482;49.154;8.254;2024-02-14T09:56:40;10.40;99.90
4934;DHT22;2482;49.154;8.254;2024-02-14T09:59:08;10.50;99.90
4934;DHT22;2482;49.154;8.254;2024-02-14T10:01:36;10.50;99.90
4934;DHT22;2482;49.154;8.254;2024-02-14T10:04:04;10.40;99.90
4934;DHT22;2482;49.154;8.254;2024-02-14T10:06:31;10.30;99.90
4934;DHT22;2482;49.154;8.254;2024-02-14T10:09:00;10.30;99.90
4934;DHT22;2482;49.154;8.254;2024-02-14T10:11:31;10.20;99.90
4934;DHT22;2482;49.154;8.254;2024-02-14T10:14:00;10.10;99.90
4934;DHT22;2482;49.154;8.254;2024-02-14T10:16:31;10.10;99.90
4934;DHT22;2482;49.154;8.254;2024-02-14T10:19:00;10.10;99.90
4934;DHT22;2482;49.154;8.254;2024-02-14T10:21:28;10.30;99.90
4934;DHT22;2482;49.154;8.254;2024-02-14T10:24:02;10.30;99.90
4934;DHT22;2482;49.154;8.254;2024-02-14T10:26:30;10.40;99.90
4934;DHT22;2482;49.154;8.254;2024-02-14T10:28:57;10.50;99.90
4934;DHT22;2482;49.154;8.254;2024-02-14T10:31:27;10.40;99.90
4934;DHT22;2482;49.154;8.254;2024-02-14T10:33:55;10.30;99.90
4934;DHT22;2482;49.154;8.254;2024-02-14T10:36:23;10.30;99.90
4934;DHT22;2482;49.154;8.254;2024-02-14T10:38:51;10.30;99.90
4934;DHT22;2482;49.154;8.254;2024-02-14T10:41:18;10.30;99.90
4934;DHT22;2482;49.154;8.254;2024-02-14T10:43:45;10.20;99.90
4934;DHT22;2482;49.154;8.254;2024-02-14T10:46:24;10.30;99.90
4934;DHT22;2482;49.154;8.254;2024-02-14T10:48:56;10.50;99.90
4934;DHT22;2482;49.154;8.254;2024-02-14T10:51:29;10.60;99.90
4934;DHT22;2482;49.154;8.254;2024-02-14T10:53:58;10.70;99.90
4934;DHT22;2482;49.154;8.254;2024-02-14T10:56:29;10.70;99.90
4934;DHT22;2482;49.154;8.254;2024-02-14T10:59:01;10.70;99.90
4934;DHT22;2482;49.154;8.254;2024-02-14T11:01:30;10.80;99.90
4934;DHT22;2482;49.154;8.254;2024-02-14T11:04:00;11.00;99.90
4934;DHT22;2482;49.154;8.254;2024-02-14T11:06:28;11.30;99.90
4934;DHT22;2482;49.154;8.254;2024-02-14T11:09:04;11.30;99.90
4934;DHT22;2482;49.154;8.254;2024-02-14T11:11:42;11.30;99.90
4934;DHT22;2482;49.154;8.254;2024-02-14T11:14:19;11.40;99.90
4934;DHT22;2482;49.154;8.254;2024-02-14T11:16:46;11.40;99.90
4934;DHT22;2482;49.154;8.254;2024-02-14T11:19:14;11.50;99.90
4934;DHT22;2482;49.154;8.254;2024-02-14T11:21:47;11.50;99.90
4934;DHT22;2482;49.154;8.254;2024-02-14T11:24:15;11.50;99.90
4934;DHT22;2482;49.154;8.254;2024-02-14T11:29:18;11.30;99.90
4934;DHT22;2482;49.154;8.254;2024-02-14T11:32:00;11.30;99.90
4934;DHT22;2482;49.154;8.254;2024-02-14T11:34:29;11.40;99.90
4934;DHT22;2482;49.154;8.254;2024-02-14T11:37:04;11.40;99.90
4934;DHT22;2482;49.154;8.254;2024-02-14T11:39:34;11.60;99.90
4934;DHT22;2482;49.154;8.254;2024-02-14T11:42:01;11.60;99.90
4934;DHT22;2482;49.154;8.254;2024-02-14T11:44:28;11.60;99.90
4934;DHT22;2482;49.154;8.254;2024-02-14T11:46:55;11.60;99.90
4934;DHT22;2482;49.154;8.254;2024-02-14T11:49:23;11.70;99.90
4934;DHT22;2482;49.154;8.254;2024-02-14T11:51:50;11.80;99.90
4934;DHT22;2482;49.154;8.254;2024-02-14T11:54:18;11.70;99.90
4934;DHT22;2482;49.154;8.254;2024-02-14T11:56:47;11.60;99.90
4934;DHT22;2482;49.154;8.254;2024-02-14T11:59:14;11.60;99.90
4934;DHT22;2482;49.154;8.254;2024-02-14T12:01:43;11.50;99.90
4934;DHT22;2482;49.154;8.254;2024-02-14T12:04:13;11.50;99.90
4934;DHT22;2482;49.154;8.254;2024-02-14T12:06:40;11.60;99.90
4934;DHT22;2482;49.154;8.254;2024-02-14T12:09:09;11.80;99.90
4934;DHT22;2482;49.154;8.254;2024-02-14T12:11:37;11.90;99.90
4934;DHT22;2482;49.154;8.254;2024-02-14T12:14:09;12.00;99.90
4934;DHT22;2482;49.154;8.254;2024-02-14T12:16:37;11.90;99.90
4934;DHT22;2482;49.154;8.254;2024-02-14T12:21:39;12.10;99.90
4934;DHT22;2482;49.154;8.254;2024-02-14T12:24:07;12.20;99.90
4934;DHT22;2482;49.154;8.254;2024-02-14T12:26:38;12.30;99.90
4934;DHT22;2482;49.154;8.254;2024-02-14T12:29:06;12.50;99.90
4934;DHT22;2482;49.154;8.254;2024-02-14T12:31:35;12.60;99.90
4934;DHT22;2482;49.154;8.254;2024-02-14T12:34:04;12.60;99.90
4934;DHT22;2482;49.154;8.254;2024-02-14T12:36:33;12.50;99.90
4934;DHT22;2482;49.154;8.254;2024-02-14T12:39:02;12.50;99.90
4934;DHT22;2482;49.154;8.254;2024-02-14T12:41:31;12.40;99.90
4934;DHT22;2482;49.154;8.254;2024-02-14T12:43:58;12.30;99.90
4934;DHT22;2482;49.154;8.254;2024-02-14T12:46:27;12.30;99.90
4934;DHT22;2482;49.154;8.254;2024-02-14T12:48:54;12.20;99.90
4934;DHT22;2482;49.154;8.254;2024-02-14T12:51:21;12.30;99.90
4934;DHT22;2482;49.154;8.254;2024-02-14T12:53:49;12.30;99.90
4934;DHT22;2482;49.154;8.254;2024-02-14T12:56:16;12.30;99.90
4934;DHT22;2482;49.154;8.254;2024-02-14T12:58:46;12.20;99.90
4934;DHT22;2482;49.154;8.254;2024-02-14T13:01:13;12.40;99.90
4934;DHT22;2482;49.154;8.254;2024-02-14T13:03:41;12.50;99.90
4934;DHT22;2482;49.154;8.254;2024-02-14T13:06:08;12.50;99.90
4934;DHT22;2482;49.154;8.254;2024-02-14T13:08:36;12.50;99.90
4934;DHT22;2482;49.154;8.254;2024-02-14T13:11:05;12.40;99.90
4934;DHT22;2482;49.154;8.254;2024-02-14T13:13:35;12.50;99.90
4934;DHT22;2482;49.154;8.254;2024-02-14T13:16:03;12.40;99.90
4934;DHT22;2482;49.154;8.254;2024-02-14T13:18:33;12.40;99.90
4934;DHT22;2482;49.154;8.254;2024-02-14T13:21:02;12.40;99.90
4934;DHT22;2482;49.154;8.254;2024-02-14T13:23:30;12.30;99.90
4934;DHT22;2482;49.154;8.254;2024-02-14T13:25:57;12.30;99.90
4934;DHT22;2482;49.154;8.254;2024-02-14T13:28:25;12.30;99.90
4934;DHT22;2482;49.154;8.254;2024-02-14T13:30:52;12.30;99.90
4934;DHT22;2482;49.154;8.254;2024-02-14T13:33:22;12.30;99.90
4934;DHT22;2482;49.154;8.254;2024-02-14T13:35:50;12.30;99.90
4934;DHT22;2482;49.154;8.254;2024-02-14T13:38:17;12.40;99.90
4934;DHT22;2482;49.154;8.254;2024-02-14T13:40:44;12.50;99.90
4934;DHT22;2482;49.154;8.254;2024-02-14T13:43:12;12.60;99.90
4934;DHT22;2482;49.154;8.254;2024-02-14T13:45:44;12.70;99.90
4934;DHT22;2482;49.154;8.254;2024-02-14T13:48:13;12.70;99.90
4934;DHT22;2482;49.154;8.254;2024-02-14T13:50:42;12.60;99.90
4934;DHT22;2482;49.154;8.254;2024-02-14T13:53:10;12.50;99.90
4934;DHT22;2482;49.154;8.254;2024-02-14T13:55:37;12.40;99.90
4934;DHT22;2482;49.154;8.254;2024-02-14T13:58:07;12.40;99.90
4934;DHT22;2482;49.154;8.254;2024-02-14T14:00:40;12.40;99.90
4934;DHT22;2482;49.154;8.254;2024-02-14T14:03:08;12.40;99.90
4934;DHT22;2482;49.154;8.254;2024-02-14T14:05:35;12.40;99.90
4934;DHT22;2482;49.154;8.254;2024-02-14T14:08:02;12.30;99.90
4934;DHT22;2482;49.154;8.254;2024-02-14T14:10:30;12.30;99.90
4934;DHT22;2482;49.154;8.254;2024-02-14T14:12:57;12.30;99.90
4934;DHT22;2482;49.154;8.254;2024-02-14T14:15:24;12.20;99.90
4934;DHT22;2482;49.154;8.254;2024-02-14T14:17:53;12.30;99.90
4934;DHT22;2482;49.154;8.254;2024-02-14T14:20:20;12.30;99.90
4934;DHT22;2482;49.154;8.254;2024-02-14T14:22:48;12.30;99.90
4934;DHT22;2482;49.154;8.254;2024-02-14T14:25:15;12.30;99.90
4934;DHT22;2482;49.154;8.254;2024-02-14T14:27:42;12.20;99.90
4934;DHT22;2482;49.154;8.254;2024-02-14T14:30:10;12.30;99.90
4934;DHT22;2482;49.154;8.254;2024-02-14T14:32:39;12.20;99.90
4934;DHT22;2482;49.154;8.254;2024-02-14T14:35:07;12.20;99.90
4934;DHT22;2482;49.154;8.254;2024-02-14T14:37:37;12.30;99.90
4934;DHT22;2482;49.154;8.254;2024-02-14T14:40:05;12.30;99.90
4934;DHT22;2482;49.154;8.254;2024-02-14T14:42:35;12.30;99.90
4934;DHT22;2482;49.154;8.254;2024-02-14T14:45:02;12.40;99.90
4934;DHT22;2482;49.154;8.254;2024-02-14T14:47:31;12.40;99.90
4934;DHT22;2482;49.154;8.254;2024-02-14T14:49:58;12.40;99.90
4934;DHT22;2482;49.154;8.254;2024-02-14T14:52:26;12.40;99.90
4934;DHT22;2482;49.154;8.254;2024-02-14T14:54:53;12.30;99.90
4934;DHT22;2482;49.154;8.254;2024-02-14T14:57:20;12.40;99.90
4934;DHT22;2482;49.154;8.254;2024-02-14T14:59:48;12.50;99.90
4934;DHT22;2482;49.154;8.254;2024-02-14T15:02:15;12.50;99.90
4934;DHT22;2482;49.154;8.254;2024-02-14T15:04:42;12.50;99.90
4934;DHT22;2482;49.154;8.254;2024-02-14T15:07:10;12.50;99.90
4934;DHT22;2482;49.154;8.254;2024-02-14T15:09:38;12.50;99.90
4934;DHT22;2482;49.154;8.254;2024-02-14T15:12:06;12.50;99.90
4934;DHT22;2482;49.154;8.254;2024-02-14T15:14:34;12.50;99.90
4934;DHT22;2482;49.154;8.254;2024-02-14T15:17:01;12.40;99.90
4934;DHT22;2482;49.154;8.254;2024-02-14T15:19:28;12.30;99.90
4934;DHT22;2482;49.154;8.254;2024-02-14T15:21:55;12.40;99.90
4934;DHT22;2482;49.154;8.254;2024-02-14T15:24:22;12.50;99.90
4934;DHT22;2482;49.154;8.254;2024-02-14T15:26:50;12.50;99.90
4934;DHT22;2482;49.154;8.254;2024-02-14T15:29:20;12.40;99.90
4934;DHT22;2482;49.154;8.254;2024-02-14T15:32:05;12.40;99.90
4934;DHT22;2482;49.154;8.254;2024-02-14T15:34:51;12.40;99.90
4934;DHT22;2482;49.154;8.254;2024-02-14T15:37:18;12.40;99.90
4934;DHT22;2482;49.154;8.254;2024-02-14T15:39:45;12.50;99.90
4934;DHT22;2482;49.154;8.254;2024-02-14T15:42:12;12.40;99.90
4934;DHT22;2482;49.154;8.254;2024-02-14T15:44:41;12.30;99.90
4934;DHT22;2482;49.154;8.254;2024-02-14T15:47:08;12.40;99.90
4934;DHT22;2482;49.154;8.254;2024-02-14T15:49:36;12.30;99.90
4934;DHT22;2482;49.154;8.254;2024-02-14T15:52:03;12.30;99.90
4934;DHT22;2482;49.154;8.254;2024-02-14T15:54:31;12.40;99.90
4934;DHT22;2482;49.154;8.254;2024-02-14T15:56:58;12.30;99.90
4934;DHT22;2482;49.154;8.254;2024-02-14T15:59:27;12.30;99.90
4934;DHT22;2482;49.154;8.254;2024-02-14T16:01:54;12.30;99.90
4934;DHT22;2482;49.154;8.254;2024-02-14T16:04:22;12.30;99.90
4934;DHT22;2482;49.154;8.254;2024-02-14T16:06:51;12.30;99.90
4934;DHT22;2482;49.154;8.254;2024-02-14T16:09:20;12.20;99.90
4934;DHT22;2482;49.154;8.254;2024-02-14T16:11:47;12.30;99.90
4934;DHT22;2482;49.154;8.254;2024-02-14T16:14:14;12.20;99.90
4934;DHT22;2482;49.154;8.254;2024-02-14T16:16:43;12.30;99.90
4934;DHT22;2482;49.154;8.254;2024-02-14T16:19:10;12.30;99.90
4934;DHT22;2482;49.154;8.254;2024-02-14T16:21:41;12.50;99.90
4934;DHT22;2482;49.154;8.254;2024-02-14T16:25:04;12.60;99.90